Rome, NY (13440)

1:45 PM EDT on June 30, 2015 (GMT -0400)
Riverside | | Change Station
CLOSE
Current Station
Personal Weather Station
Location: Rome, NY
Elevation: 459 ft
Nearby Weather Stations

Elev 459 ft 43.21 °N, 75.44 °W | Updated 1 second ago

Light Rain
Light Rain
62.8 °F
Feels Like 62.8 °F
N
3.4
Wind Variable Wind from ESE
Gusts 4.9 mph

Today
High -- | Low -- °F
--% Chance of Precip.
Yesterday
High -- | Low -- °F
Precip. -- in
5:25 AM 8:45 PM
Waxing Gibbous, 98% visible
Pressure 29.93 in
Visibility 10.0 miles
Clouds Overcast 3500 ft
Dew Point 62 °F
Humidity 97%
Rainfall in
Snow Depth Not available.
UV 0.0 out of 12
Pollen .60 out of 12
Air Quality Not available.
Flu Activity Sporadic
METAR KRME 301653Z 10010KT 10SM -RA OVC035 16/15 A2993 RMK AO2 SLP133 P0017 T01610150

More Conditions Fewer Conditions

Pressure 29.93 in
Visibility 10.0 miles
Clouds Overcast 3500 ft
Dew Point 62 °F
Humidity 97%
Rainfall in
Snow Depth Not available.
UV 0.0 out of 12
Pollen .60 out of 12
Air Quality Not available.
Flu Activity Sporadic
METAR KRME 301653Z 10010KT 10SM -RA OVC035 16/15 A2993 RMK AO2 SLP133 P0017 T01610150

More Conditions Fewer Conditions

10-Day Weather Forecast

×

Almanac

Astronomy

Jun. 30, 2015 Rise Set
Actual Time
Civil Twilight
Nautical Twilight
Astronomical Twilight
Moon
Length of Visible Light
Length of Day
Tomorrow will be .
, % of the Moon is Illuminated

Today's Extremes

State Highs State Lows

Community

WunderPhotos

Upload Photos

1,834,039 photos uploaded!

WunderBlogs® & News

Nearby

Air Quality

  Air Quality AQ Index Pollutant
Not available.

Snow Depth

Station Depth Elevation

Earthquake Activity

City Distance Mag. Time & Date
Minimum magnitude displayed is 2.5.

Coastal Water Temperatures

Place Temperature

Stations

Nearby Weather Stations

Station Location Temp. Windchill Dew Point Humidity Wind Precip. Elev Updated Type